createdAt,value
2022-10-16T00:01:16.155Z,100141.50
2022-10-16T00:03:44.509Z,100138.00
2022-10-16T00:06:11.957Z,100106.88
2022-10-16T00:08:39.748Z,100115.66
2022-10-16T00:11:11.119Z,100124.31
2022-10-16T00:13:40.180Z,100145.50
2022-10-16T00:16:08.288Z,100135.84
2022-10-16T00:18:35.733Z,100155.63
2022-10-16T00:21:05.602Z,100141.22
2022-10-16T00:23:32.980Z,100146.88
2022-10-16T00:26:02.511Z,100141.06
2022-10-16T00:28:30.009Z,100105.00
2022-10-16T00:30:56.870Z,100137.19
2022-10-16T00:33:23.755Z,100139.94
2022-10-16T00:35:51.323Z,100137.34
2022-10-16T00:38:18.441Z,100126.88
2022-10-16T00:40:45.264Z,100130.00
2022-10-16T00:43:36.093Z,100105.63
2022-10-16T00:46:06.232Z,100082.84
2022-10-16T00:48:33.101Z,100090.16
2022-10-16T00:51:00.454Z,100117.34
2022-10-16T00:53:28.425Z,100081.19
2022-10-16T00:55:55.361Z,100104.88
2022-10-16T00:58:22.670Z,100083.69
2022-10-16T01:00:49.585Z,100115.06
2022-10-16T01:03:30.072Z,100098.78
2022-10-16T01:06:37.752Z,100099.28
2022-10-16T01:09:23.843Z,100100.78
2022-10-16T01:12:07.256Z,100082.84
2022-10-16T01:15:09.017Z,100091.31
2022-10-16T01:17:59.448Z,100085.03
2022-10-16T01:20:44.249Z,100080.69
2022-10-16T01:23:25.347Z,100083.31
2022-10-16T01:26:11.863Z,100079.66
2022-10-16T01:28:50.877Z,100081.53
2022-10-16T01:31:21.298Z,100074.88
2022-10-16T01:33:57.846Z,100074.88
2022-10-16T01:36:29.991Z,100079.03
2022-10-16T01:39:02.287Z,100050.03
2022-10-16T01:41:38.220Z,100065.59
2022-10-16T01:44:07.971Z,100055.09
2022-10-16T01:46:38.777Z,100069.72
2022-10-16T01:49:07.431Z,100049.97
2022-10-16T01:51:36.246Z,100061.25
2022-10-16T01:54:05.193Z,100069.19
2022-10-16T01:56:33.256Z,100052.63
2022-10-16T01:59:14.862Z,100053.13
2022-10-16T02:01:50.003Z,99996.81
2022-10-16T02:04:45.752Z,100030.75
2022-10-16T02:07:13.250Z,100059.59
2022-10-16T02:09:40.630Z,100040.88
2022-10-16T02:12:14.449Z,100042.88
2022-10-16T02:14:41.927Z,100055.13
2022-10-16T02:17:17.791Z,100046.09
2022-10-16T02:19:48.272Z,100054.19
2022-10-16T02:22:37.561Z,100055.47
2022-10-16T02:25:39.660Z,100058.00
2022-10-16T02:28:30.881Z,100031.47
2022-10-16T02:31:02.321Z,100040.38
2022-10-16T02:33:31.913Z,100031.00
2022-10-16T02:35:59.324Z,100050.03
2022-10-16T02:38:27.150Z,100040.38
2022-10-16T02:40:54.349Z,100050.69
2022-10-16T02:43:21.312Z,100032.78
2022-10-16T02:45:48.020Z,100032.13
2022-10-16T02:48:14.819Z,100026.47
2022-10-16T02:50:41.642Z,100027.63
2022-10-16T02:53:08.447Z,100030.78
2022-10-16T02:55:35.212Z,100029.19
2022-10-16T02:58:01.942Z,100037.78
2022-10-16T03:00:29.619Z,100016.78
2022-10-16T03:02:56.476Z,100002.81
2022-10-16T03:05:23.239Z,100024.72
2022-10-16T03:07:49.978Z,100026.19
2022-10-16T03:10:16.951Z,99989.28
2022-10-16T03:12:43.693Z,100031.69
2022-10-16T03:15:10.564Z,100004.66
2022-10-16T03:17:37.484Z,100016.94
2022-10-16T03:20:04.907Z,100010.31
2022-10-16T03:22:31.701Z,99983.28
2022-10-16T03:24:58.652Z,100010.97
2022-10-16T03:27:25.597Z,100001.47
2022-10-16T03:29:52.613Z,100003.00
2022-10-16T03:32:21.399Z,99963.34
2022-10-16T03:34:48.355Z,99989.72
2022-10-16T03:37:15.189Z,100000.38
2022-10-16T03:39:41.999Z,99998.72
2022-10-16T03:42:08.686Z,100001.16
2022-10-16T03:44:35.411Z,99995.97
2022-10-16T03:47:02.275Z,99993.66
2022-10-16T03:49:28.971Z,99996.09
2022-10-16T03:51:56.538Z,99994.22
2022-10-16T03:54:23.417Z,99993.25
2022-10-16T03:56:50.133Z,99988.81
2022-10-16T03:59:16.848Z,99982.84
2022-10-16T04:01:43.720Z,99994.47
2022-10-16T04:04:10.620Z,99999.44
2022-10-16T04:06:37.485Z,99989.66
2022-10-16T04:09:04.410Z,99965.03
2022-10-16T04:11:31.190Z,99982.75
2022-10-16T04:13:57.886Z,100003.16
2022-10-16T04:16:24.729Z,99991.50
2022-10-16T04:18:51.649Z,99992.16
2022-10-16T04:21:18.323Z,100001.09
2022-10-16T04:23:45.176Z,99994.34
2022-10-16T04:26:11.855Z,99996.88
2022-10-16T04:28:38.678Z,99992.03
2022-10-16T04:31:06.873Z,99983.41
2022-10-16T04:33:34.658Z,99982.69
2022-10-16T04:36:02.997Z,99969.34
2022-10-16T04:38:30.522Z,100003.97
2022-10-16T04:40:57.574Z,100005.66
2022-10-16T04:43:24.546Z,99986.75
2022-10-16T04:45:52.172Z,100002.94
2022-10-16T04:48:19.748Z,99981.53
2022-10-16T04:50:50.494Z,99978.91
2022-10-16T04:53:21.339Z,100002.78
2022-10-16T04:55:48.153Z,99974.69
2022-10-16T04:58:14.870Z,100003.06
2022-10-16T05:00:41.835Z,99979.94
2022-10-16T05:03:09.969Z,99979.72
2022-10-16T05:05:37.397Z,99953.41
2022-10-16T05:08:04.531Z,100003.88
2022-10-16T05:10:31.216Z,99997.59
2022-10-16T05:12:58.057Z,100011.00
2022-10-16T05:15:26.367Z,100001.53
2022-10-16T05:17:56.751Z,100022.88
2022-10-16T05:20:23.956Z,100016.94
2022-10-16T05:22:51.102Z,100031.03
2022-10-16T05:25:18.103Z,100016.97
2022-10-16T05:27:44.873Z,100031.50
2022-10-16T05:30:12.565Z,100019.31
2022-10-16T05:32:39.711Z,100032.88
2022-10-16T05:35:08.774Z,100022.31
2022-10-16T05:37:38.781Z,100022.19
2022-10-16T05:40:06.073Z,100026.63
2022-10-16T05:42:32.817Z,100033.91
2022-10-16T05:44:59.703Z,100042.38
2022-10-16T05:47:26.564Z,100024.63
2022-10-16T05:49:53.558Z,100052.31
2022-10-16T05:52:20.484Z,100044.88
2022-10-16T05:54:47.156Z,100036.09
2022-10-16T05:57:13.845Z,100040.59
2022-10-16T05:59:40.887Z,100043.25
2022-10-16T06:02:13.722Z,100046.91
2022-10-16T06:04:40.476Z,100028.19
2022-10-16T06:07:08.035Z,100052.72
2022-10-16T06:09:34.737Z,100064.69
2022-10-16T06:12:01.481Z,100042.25
2022-10-16T06:14:28.717Z,100045.22
2022-10-16T06:16:55.695Z,100067.78
2022-10-16T06:19:22.521Z,100052.25
2022-10-16T06:21:49.275Z,100043.28
2022-10-16T06:24:16.001Z,100053.22
2022-10-16T06:26:42.717Z,100036.34
2022-10-16T06:29:09.872Z,100036.34
2022-10-16T06:31:36.632Z,100040.34
2022-10-16T06:34:05.774Z,100042.00
2022-10-16T06:36:32.677Z,100017.47
2022-10-16T06:38:59.536Z,100050.47
2022-10-16T06:41:26.348Z,100036.06
2022-10-16T06:43:53.485Z,100030.41
2022-10-16T06:46:23.309Z,100033.84
2022-10-16T06:48:50.524Z,100030.41
2022-10-16T06:51:19.583Z,100056.09
2022-10-16T06:54:05.675Z,100044.31
2022-10-16T06:56:33.796Z,100062.25
2022-10-16T06:59:00.954Z,100072.50
2022-10-16T07:01:29.775Z,100064.22
2022-10-16T07:03:56.928Z,100039.03
2022-10-16T07:06:25.873Z,100054.06
2022-10-16T07:08:53.220Z,100064.38
2022-10-16T07:11:22.786Z,100058.88
2022-10-16T07:13:54.575Z,100035.03
2022-10-16T07:16:29.116Z,100044.34
2022-10-16T07:19:01.447Z,100047.28
2022-10-16T07:21:37.090Z,100053.69
2022-10-16T07:24:08.379Z,100050.50
2022-10-16T07:26:37.409Z,100056.31
2022-10-16T07:29:04.747Z,100044.91
2022-10-16T07:31:31.823Z,100071.44
2022-10-16T07:34:00.158Z,100044.72
2022-10-16T07:36:27.293Z,100073.38
2022-10-16T07:38:57.113Z,100072.75
2022-10-16T07:41:27.437Z,100074.94
2022-10-16T07:43:55.638Z,100094.31
2022-10-16T07:46:24.282Z,100088.28
2022-10-16T07:48:51.242Z,100076.31
2022-10-16T07:51:21.260Z,100093.56
2022-10-16T07:53:48.404Z,100085.47
2022-10-16T07:56:16.021Z,100099.56
2022-10-16T07:58:43.005Z,100070.53
2022-10-16T08:01:12.927Z,100090.88
2022-10-16T08:03:39.801Z,100088.59
2022-10-16T08:06:06.553Z,100058.00
2022-10-16T08:08:33.315Z,100081.59
2022-10-16T08:11:00.443Z,100073.41
2022-10-16T08:13:27.775Z,100088.72
2022-10-16T08:15:55.110Z,100062.28
2022-10-16T08:18:22.089Z,100081.53
2022-10-16T08:20:49.081Z,100068.97
2022-10-16T08:23:15.828Z,100101.47
2022-10-16T08:25:43.096Z,100098.13
2022-10-16T08:28:12.116Z,100103.63
2022-10-16T08:30:39.353Z,100100.59
2022-10-16T08:33:07.205Z,100114.25
2022-10-16T08:35:34.544Z,100115.69
2022-10-16T08:38:01.348Z,100118.66
2022-10-16T08:40:33.540Z,100078.44
2022-10-16T08:43:42.546Z,100098.41
2022-10-16T08:46:09.315Z,100123.22
2022-10-16T08:48:42.639Z,100085.59
2022-10-16T08:51:12.511Z,100099.72
2022-10-16T08:54:02.889Z,100121.16
2022-10-16T08:56:29.786Z,100114.28
2022-10-16T08:59:02.118Z,100121.84
2022-10-16T09:01:43.236Z,100114.75
2022-10-16T09:04:15.701Z,100121.16
2022-10-16T09:06:48.404Z,100129.44
2022-10-16T09:09:25.692Z,100115.19
2022-10-16T09:12:16.281Z,100127.50
2022-10-16T09:14:51.617Z,100140.06
2022-10-16T09:17:24.297Z,100100.41
2022-10-16T09:20:28.349Z,100119.31
2022-10-16T09:23:25.986Z,100125.19
2022-10-16T09:25:54.294Z,100096.50
2022-10-16T09:28:21.522Z,100108.03
2022-10-16T09:30:52.246Z,100104.63
2022-10-16T09:33:22.246Z,100105.56
2022-10-16T09:35:52.039Z,100109.09
2022-10-16T09:38:30.290Z,100105.19
2022-10-16T09:41:22.193Z,100110.53
2022-10-16T09:43:58.372Z,100135.44
2022-10-16T09:46:37.236Z,100118.66
2022-10-16T09:49:19.772Z,100116.06
2022-10-16T09:51:46.603Z,100126.94
2022-10-16T09:54:17.163Z,100109.28
2022-10-16T09:56:46.896Z,100088.91
2022-10-16T09:59:18.481Z,100111.38
2022-10-16T10:01:53.623Z,100096.72
2022-10-16T10:04:21.643Z,100140.22
2022-10-16T10:06:56.813Z,100134.44
2022-10-16T10:09:40.976Z,100131.09
2022-10-16T10:12:27.007Z,100112.28
2022-10-16T10:14:57.492Z,100093.78
2022-10-16T10:17:29.202Z,100130.53
2022-10-16T10:19:59.364Z,100141.75
2022-10-16T10:22:47.092Z,100123.56
2022-10-16T10:25:13.783Z,100141.41
2022-10-16T10:27:59.217Z,100128.31
2022-10-16T10:30:47.662Z,100132.88
2022-10-16T10:33:26.563Z,100131.84
2022-10-16T10:36:18.133Z,100118.59
2022-10-16T10:38:51.125Z,100135.50
2022-10-16T10:41:17.765Z,100127.81
2022-10-16T10:43:44.413Z,100136.69
2022-10-16T10:46:18.912Z,100082.34
2022-10-16T10:48:58.222Z,100087.03
2022-10-16T10:51:47.169Z,100109.50
2022-10-16T10:54:43.417Z,100121.09
2022-10-16T10:57:26.672Z,100121.44
2022-10-16T10:59:56.473Z,100110.47
2022-10-16T11:02:27.817Z,100120.72
2022-10-16T11:05:10.318Z,100117.50
2022-10-16T11:08:03.718Z,100119.38
2022-10-16T11:10:45.965Z,100106.97
2022-10-16T11:13:21.688Z,100108.00
2022-10-16T11:15:52.261Z,100106.06
2022-10-16T11:18:34.441Z,100109.69
2022-10-16T11:21:14.203Z,99999.41
2022-10-16T11:24:06.204Z,100097.31
2022-10-16T11:26:40.697Z,100086.31
2022-10-16T11:29:17.914Z,100082.75
2022-10-16T11:31:51.166Z,100111.13
2022-10-16T11:34:27.603Z,100111.84
2022-10-16T11:37:04.096Z,100085.63
2022-10-16T11:39:32.011Z,100090.47
2022-10-16T11:42:17.240Z,100060.59
2022-10-16T11:44:49.995Z,100092.28
2022-10-16T11:47:46.462Z,100086.97
2022-10-16T11:50:18.497Z,100083.50
2022-10-16T11:52:45.139Z,100091.44
2022-10-16T11:55:32.719Z,100066.66
2022-10-16T11:58:05.823Z,100080.94
2022-10-16T12:00:40.580Z,100072.31
2022-10-16T12:03:24.133Z,100065.19
2022-10-16T12:05:55.871Z,100098.38
2022-10-16T12:08:24.355Z,100081.75
2022-10-16T12:10:51.230Z,100100.50
2022-10-16T12:13:37.282Z,100062.34
2022-10-16T12:16:14.071Z,100082.91
2022-10-16T12:18:46.307Z,100094.84
2022-10-16T12:21:17.012Z,100069.09
2022-10-16T12:23:57.719Z,100068.34
2022-10-16T12:26:46.864Z,100082.41
2022-10-16T12:29:37.948Z,100077.81
2022-10-16T12:32:24.205Z,100052.44
2022-10-16T12:35:03.843Z,100054.75
2022-10-16T12:37:36.708Z,100065.59
2022-10-16T12:40:17.705Z,100056.22
2022-10-16T12:42:44.418Z,100046.03
2022-10-16T12:45:32.561Z,100068.03
2022-10-16T12:48:02.886Z,100048.88
2022-10-16T12:50:38.359Z,100064.72
2022-10-16T12:53:20.166Z,100070.66
2022-10-16T12:55:53.509Z,100011.53
2022-10-16T12:58:26.502Z,100059.38
2022-10-16T13:01:01.350Z,100034.94
2022-10-16T13:04:01.113Z,100050.97
2022-10-16T13:06:49.331Z,100048.03
2022-10-16T13:09:34.013Z,100029.25
2022-10-16T13:12:13.084Z,100047.84
2022-10-16T13:14:55.219Z,100036.63
2022-10-16T13:17:40.708Z,100045.25
2022-10-16T13:20:28.471Z,100025.66
2022-10-16T13:23:26.714Z,100014.09
2022-10-16T13:26:30.265Z,100017.28
2022-10-16T13:29:01.826Z,100000.16
2022-10-16T13:31:29.845Z,100010.16
2022-10-16T13:34:00.401Z,99989.09
2022-10-16T13:36:44.828Z,100021.72
2022-10-16T13:39:18.983Z,99994.25
2022-10-16T13:41:46.316Z,99989.72
2022-10-16T13:44:21.789Z,99996.56
2022-10-16T13:46:59.833Z,100007.66
2022-10-16T13:49:26.593Z,99985.66
2022-10-16T13:51:58.901Z,100001.69
2022-10-16T13:54:27.992Z,99996.56
2022-10-16T13:57:03.433Z,100001.34
2022-10-16T13:59:38.537Z,99984.50
2022-10-16T14:02:32.759Z,100000.28
2022-10-16T14:05:00.012Z,99980.44
2022-10-16T14:07:29.897Z,99991.03
2022-10-16T14:09:57.114Z,99994.78
2022-10-16T14:12:28.013Z,99936.47
2022-10-16T14:14:56.691Z,99970.75
2022-10-16T14:17:27.515Z,99977.09
2022-10-16T14:20:02.858Z,99977.69
2022-10-16T14:22:38.957Z,99974.66
2022-10-16T14:25:21.001Z,99966.31
2022-10-16T14:28:17.942Z,99965.28
2022-10-16T14:30:55.640Z,99945.69
2022-10-16T14:33:40.475Z,99960.13
2022-10-16T14:36:10.267Z,99966.50
2022-10-16T14:38:37.731Z,99962.63
2022-10-16T14:41:05.205Z,99956.94
2022-10-16T14:43:40.410Z,99951.06
2022-10-16T14:46:18.256Z,99957.75
2022-10-16T14:48:49.860Z,99954.53
2022-10-16T14:51:21.257Z,99948.91
2022-10-16T14:53:48.309Z,99909.03
2022-10-16T14:56:25.040Z,99944.78
2022-10-16T14:58:53.159Z,99949.75
2022-10-16T15:01:20.708Z,99952.00
2022-10-16T15:03:47.983Z,99947.78
2022-10-16T15:06:17.843Z,99934.19
2022-10-16T15:08:44.556Z,99932.44
2022-10-16T15:11:19.196Z,99920.50
2022-10-16T15:13:46.445Z,99944.34
2022-10-16T15:16:17.013Z,99930.31
2022-10-16T15:18:44.801Z,99911.00
2022-10-16T15:21:25.500Z,99919.66
2022-10-16T15:23:52.353Z,99936.72
2022-10-16T15:26:19.307Z,99946.31
2022-10-16T15:28:46.069Z,99950.75
2022-10-16T15:31:12.973Z,99938.38
2022-10-16T15:33:40.130Z,99934.63
2022-10-16T15:36:07.691Z,99933.88
2022-10-16T15:38:35.192Z,99913.38
2022-10-16T15:41:01.969Z,99935.09
2022-10-16T15:43:29.902Z,99943.31
2022-10-16T15:46:07.876Z,99944.31
2022-10-16T15:48:35.122Z,99949.75
2022-10-16T15:51:05.653Z,99953.88
2022-10-16T15:53:32.570Z,99949.00
2022-10-16T15:55:59.325Z,99948.63
2022-10-16T15:58:26.344Z,99970.56
2022-10-16T16:00:58.262Z,99964.44
2022-10-16T16:03:25.443Z,99962.28
2022-10-16T16:05:52.189Z,99971.88
2022-10-16T16:08:19.034Z,99965.28
2022-10-16T16:10:45.796Z,99998.94
2022-10-16T16:13:12.600Z,99949.78
2022-10-16T16:15:42.529Z,100003.09
2022-10-16T16:18:10.875Z,99992.03
2022-10-16T16:20:37.857Z,99997.41
2022-10-16T16:23:04.686Z,99983.84
2022-10-16T16:25:31.869Z,100012.09
2022-10-16T16:27:58.561Z,99994.59
2022-10-16T16:30:28.195Z,100001.41
2022-10-16T16:32:55.171Z,100007.88
2022-10-16T16:35:21.863Z,99988.25
2022-10-16T16:37:48.934Z,100022.47
2022-10-16T16:40:15.820Z,100019.88
2022-10-16T16:42:42.531Z,99982.00
2022-10-16T16:45:09.753Z,100033.19
2022-10-16T16:47:36.489Z,100026.75
2022-10-16T16:50:05.992Z,100031.31
2022-10-16T16:52:32.955Z,100022.81
2022-10-16T16:54:59.751Z,100014.28
2022-10-16T16:57:26.825Z,100014.53
2022-10-16T16:59:54.127Z,100010.69
2022-10-16T17:02:20.937Z,100012.22
2022-10-16T17:04:47.731Z,100020.38
2022-10-16T17:07:14.548Z,100013.59
2022-10-16T17:09:41.248Z,99977.78
2022-10-16T17:12:07.945Z,99987.81
2022-10-16T17:14:34.806Z,100028.81
2022-10-16T17:17:01.555Z,100018.44
2022-10-16T17:19:28.435Z,100019.91
2022-10-16T17:21:55.347Z,100012.56
2022-10-16T17:24:22.614Z,99987.97
2022-10-16T17:26:49.542Z,100000.34
2022-10-16T17:29:18.603Z,99963.94
2022-10-16T17:31:46.343Z,99984.69
2022-10-16T17:34:13.541Z,100002.41
2022-10-16T17:36:48.033Z,99997.69
2022-10-16T17:39:18.171Z,99992.94
2022-10-16T17:41:45.511Z,99997.69
2022-10-16T17:44:20.213Z,99977.41
2022-10-16T17:46:52.417Z,99997.81
2022-10-16T17:49:22.231Z,99985.44
2022-10-16T17:51:52.675Z,99993.47
2022-10-16T17:54:20.257Z,100008.38
2022-10-16T17:56:48.975Z,100000.13
2022-10-16T17:59:16.156Z,99980.56
2022-10-16T18:01:46.216Z,100000.53
2022-10-16T18:04:16.153Z,100023.53
2022-10-16T18:06:44.398Z,99986.25
2022-10-16T18:09:14.198Z,100030.94
2022-10-16T18:11:41.018Z,100038.41
2022-10-16T18:14:07.858Z,100033.50
2022-10-16T18:16:36.790Z,100074.56
2022-10-16T18:19:04.321Z,100065.34
2022-10-16T18:21:32.417Z,100071.13
2022-10-16T18:24:01.450Z,100090.63
2022-10-16T18:26:28.990Z,100073.03
2022-10-16T18:28:57.657Z,100104.69
2022-10-16T18:31:26.661Z,100135.63
2022-10-16T18:33:54.731Z,100108.94
2022-10-16T18:36:24.959Z,100152.03
2022-10-16T18:38:52.737Z,100119.06
2022-10-16T18:41:19.834Z,100163.56
2022-10-16T18:43:47.008Z,100169.53
2022-10-16T18:46:19.553Z,100177.53
2022-10-16T18:48:48.246Z,100186.53
2022-10-16T18:51:24.235Z,100187.81
2022-10-16T18:53:54.959Z,100195.94
2022-10-16T18:56:23.466Z,100184.84
2022-10-16T18:58:53.550Z,100188.97
2022-10-16T19:01:25.383Z,100192.66
2022-10-16T19:04:01.813Z,100188.13
2022-10-16T19:06:29.632Z,100200.06
2022-10-16T19:08:57.053Z,100185.34
2022-10-16T19:11:25.807Z,100212.81
2022-10-16T19:13:56.836Z,100203.72
2022-10-16T19:16:35.838Z,100222.84
2022-10-16T19:19:05.809Z,100215.31
2022-10-16T19:21:37.068Z,100222.13
2022-10-16T19:24:04.360Z,100225.78
2022-10-16T19:26:32.591Z,100233.25
2022-10-16T19:29:03.738Z,100256.28
2022-10-16T19:31:31.536Z,100254.00
2022-10-16T19:34:02.892Z,100265.41
2022-10-16T19:36:34.797Z,100256.91
2022-10-16T19:39:05.805Z,100262.94
2022-10-16T19:41:33.440Z,100269.28
2022-10-16T19:44:04.762Z,100226.91
2022-10-16T19:46:32.242Z,100257.38
2022-10-16T19:49:02.112Z,100241.72
2022-10-16T19:51:30.428Z,100264.00
2022-10-16T19:54:01.745Z,100254.72
2022-10-16T19:56:30.338Z,100267.03
2022-10-16T19:58:58.812Z,100245.19
2022-10-16T20:01:28.473Z,100232.59
2022-10-16T20:03:55.965Z,100271.56
2022-10-16T20:06:23.589Z,100250.78
2022-10-16T20:08:52.180Z,100262.28
2022-10-16T20:11:22.062Z,100261.59
2022-10-16T20:13:49.190Z,100261.47
2022-10-16T20:16:19.645Z,100246.09
2022-10-16T20:18:48.340Z,100256.34
2022-10-16T20:21:22.358Z,100263.94
2022-10-16T20:23:51.114Z,100238.25
2022-10-16T20:26:22.475Z,100249.38
2022-10-16T20:28:49.229Z,100247.72
2022-10-16T20:31:22.624Z,100259.47
2022-10-16T20:33:50.962Z,100249.03
2022-10-16T20:36:19.434Z,100251.66
2022-10-16T20:38:46.840Z,100203.63
2022-10-16T20:41:14.085Z,100257.69
2022-10-16T20:46:18.476Z,100245.06
2022-10-16T20:48:47.020Z,100259.16
2022-10-16T20:51:23.021Z,100254.88
2022-10-16T20:53:54.889Z,100249.03
2022-10-16T20:56:22.568Z,100243.38
2022-10-16T20:58:49.631Z,100252.34
2022-10-16T21:01:19.153Z,100247.50
2022-10-16T21:03:51.821Z,100249.03
2022-10-16T21:06:18.655Z,100269.00
2022-10-16T21:08:46.714Z,100236.53
2022-10-16T21:11:35.442Z,100266.19
2022-10-16T21:14:04.422Z,100205.66
2022-10-16T21:16:31.645Z,100241.09
2022-10-16T21:18:58.515Z,100256.00
2022-10-16T21:21:31.455Z,100254.03
2022-10-16T21:23:59.396Z,100247.75
2022-10-16T21:26:27.340Z,100249.91
2022-10-16T21:28:59.644Z,100255.25
2022-10-16T21:31:26.967Z,100258.75
2022-10-16T21:33:55.406Z,100238.81
2022-10-16T21:36:27.716Z,100244.19
2022-10-16T21:38:54.577Z,100232.63
2022-10-16T21:41:27.091Z,100260.53
2022-10-16T21:43:55.463Z,100266.84
2022-10-16T21:46:24.316Z,100256.38
2022-10-16T21:48:55.756Z,100258.53
2022-10-16T21:51:27.246Z,100232.50
2022-10-16T21:53:54.711Z,100257.56
2022-10-16T21:56:22.130Z,100262.09
2022-10-16T21:58:49.218Z,100263.28
2022-10-16T22:01:19.194Z,100259.94
2022-10-16T22:03:46.346Z,100257.31
2022-10-16T22:06:15.397Z,100246.03
2022-10-16T22:08:43.025Z,100248.34
2022-10-16T22:11:22.001Z,100254.19
2022-10-16T22:13:54.204Z,100245.38
2022-10-16T22:16:25.424Z,100235.91
2022-10-16T22:18:54.134Z,100232.41
2022-10-16T22:21:21.182Z,100223.78
2022-10-16T22:23:48.599Z,100239.06
2022-10-16T22:26:15.404Z,100235.41
2022-10-16T22:28:42.446Z,100169.06
2022-10-16T22:31:12.442Z,100214.16
2022-10-16T22:33:40.434Z,100227.91
2022-10-16T22:36:10.317Z,100214.31
2022-10-16T22:38:37.388Z,100223.13
2022-10-16T22:41:10.803Z,100216.63
2022-10-16T22:43:44.165Z,100212.50
2022-10-16T22:46:26.143Z,100224.41
2022-10-16T22:48:53.096Z,100225.56
2022-10-16T22:51:20.117Z,100201.81
2022-10-16T22:53:48.566Z,100217.28
2022-10-16T22:56:17.089Z,100184.53
2022-10-16T22:58:43.924Z,100199.81
2022-10-16T23:01:13.197Z,100198.31
2022-10-16T23:03:40.040Z,100208.78
2022-10-16T23:06:06.916Z,100200.16
2022-10-16T23:08:33.666Z,100206.41
2022-10-16T23:11:02.341Z,100216.56
2022-10-16T23:13:29.259Z,100213.75
2022-10-16T23:15:56.001Z,100209.91
2022-10-16T23:18:22.854Z,100214.53
2022-10-16T23:20:49.708Z,100194.94
2022-10-16T23:23:16.400Z,100217.03
2022-10-16T23:25:49.461Z,100189.63
2022-10-16T23:30:47.781Z,100195.41
2022-10-16T23:33:14.530Z,100200.03
2022-10-16T23:35:41.280Z,100197.56
2022-10-16T23:38:08.214Z,100211.47
2022-10-16T23:40:34.991Z,100183.41
2022-10-16T23:43:01.785Z,100192.84
2022-10-16T23:45:28.596Z,100185.03
2022-10-16T23:47:55.371Z,100193.66
2022-10-16T23:50:22.126Z,100193.13
2022-10-16T23:52:48.906Z,100189.63
2022-10-16T23:55:15.839Z,100183.47
2022-10-16T23:57:42.593Z,100178.84
